Flight Track Log - Related Links

Times and Time Zones

All times are in EDT time to prevent confusion due to time zone crossing. See the SWA1521 flight status page for this flight to view local times or setup timezone preferences in your user account.

Time Position Orientation Groundspeed Altitude Reporting Facility
EDT Latitude Longitude Course Direction KTS MPH feet Rate Location/Type
Thu 09:17:23 PM 47.4733 -122.3122 North 147 169 1,700  Level Seattle Center
Thu 09:17:53 PM 47.4933 -122.3111 North 148 170 2,400 1,780 Climbing Seattle Center
Thu 09:18:54 PM 47.5511 -122.3119 359° North 223 257 4,400 2,508 Climbing Seattle Center
Thu 09:19:55 PM 47.6114 -122.2689 26° Northeast 292 336 7,500 3,421 Climbing Seattle Center
Thu 09:20:48 PM 47.6014 -122.1622 98° East 294 338 10,900 3,158 Climbing Seattle Center
Thu 09:21:49 PM 47.5153 -122.1297 166° South 331 381 13,500 2,852 Climbing Seattle Center
Thu 09:22:50 PM 47.4164 -122.1167 175° South 353 406 16,700 2,656 Climbing Seattle Center
Thu 09:23:51 PM 47.3144 -122.1100 177° South 372 428 18,900 2,410 Climbing Seattle Center
Thu 09:24:52 PM 47.2061 -122.1011 177° South 388 447 21,600 2,459 Climbing Seattle Center
Thu 09:25:53 PM 47.0964 -122.0931 177° South 395 455 23,900 2,164 Climbing Seattle Center
Thu 09:26:54 PM 46.9817 -122.0822 176° South 410 472 26,000 1,967 Climbing Seattle Center
Thu 09:27:55 PM 46.8642 -122.0739 177° South 424 488 27,900 1,820 Climbing Seattle Center
Thu 09:28:56 PM 46.7450 -122.0644 177° South 433 498 29,700 1,918 Climbing Seattle Center
Thu 09:29:57 PM 46.5989 -122.0522 177° South 442 509 31,800 2,115 Climbing Seattle Center
Thu 09:30:58 PM 46.4786 -122.0442 177° South 438 504 34,000 1,884 Climbing Seattle Center
Thu 09:31:58 PM 46.3619 -122.0342 177° South 428 493 35,600 1,488 Climbing Seattle Center
Thu 09:32:59 PM 46.2442 -122.0264 177° South 429 494 37,000 1,230 Climbing Seattle Center
Thu 09:34:00 PM 46.1164 -122.0150 176° South 426 490 38,100 934 Climbing Seattle Center
Thu 09:35:01 PM 45.9956 -122.0053 177° South 433 498 38,900 443 Climbing Seattle Center
Thu 09:36:02 PM 45.8750 -121.9964 177° South 434 499 39,000 49 Climbing Seattle Center
Thu 09:37:03 PM 45.7533 -121.9892 178° South 438 504 39,000  Level Seattle Center
Thu 09:38:04 PM 45.6325 -121.9814 177° South 436 502 39,000  Level Seattle Center
Thu 09:39:05 PM 45.5114 -121.9731 177° South 435 501 39,000  Level Seattle Center
Thu 09:40:06 PM 45.3883 -121.9658 178° South 440 506 39,000  Level Seattle Center
Thu 09:41:06 PM 45.2658 -121.9567 177° South 441 507 39,000  Level Seattle Center
Thu 09:42:07 PM 45.1397 -121.9492 178° South 454 522 39,000  Level Seattle Center
Thu 09:43:08 PM 45.0156 -121.9414 177° South 450 518 39,000  Level Seattle Center
Thu 09:44:09 PM 44.8903 -121.9336 177° South 452 520 39,000  Level Seattle Center
Thu 09:45:10 PM 44.7606 -121.9253 177° South 433 498 39,000  Level Seattle Center
Thu 09:46:11 PM 44.6358 -121.9156 177° South 444 511 39,000  Level Seattle Center
Thu 09:47:12 PM 44.5094 -121.9083 178° South 449 517 39,000  Level Seattle Center
Thu 09:48:13 PM 44.3850 -121.9003 177° South 448 516 39,000  Level Seattle Center
Thu 09:49:14 PM 44.2611 -121.8933 178° South 446 513 39,000  Level Seattle Center
Thu 09:50:14 PM 44.1358 -121.8858 178° South 448 516 39,000  Level Seattle Center
Thu 09:51:15 PM 44.0147 -121.8794 178° South 447 514 39,000  Level Seattle Center
Thu 09:52:16 PM 43.8900 -121.8711 177° South 449 517 39,000  Level Seattle Center
Thu 09:53:17 PM 43.7492 -121.8647 178° South 460 529 39,000  Level Seattle Center
Thu 09:54:18 PM 43.6236 -121.8564 177° South 454 522 39,000  Level Seattle Center
Thu 09:55:19 PM 43.4981 -121.8497 178° South 454 522 39,000  Level Seattle Center
Thu 09:56:20 PM 43.3719 -121.8403 177° South 455 524 39,000  Level Seattle Center
Thu 09:57:21 PM 43.2453 -121.8353 178° South 458 527 39,000  Level Seattle Center
Thu 09:58:21 PM 43.1175 -121.8256 177° South 462 532 39,000  Level Seattle Center
Thu 09:59:25 PM 42.9906 -121.8197 178° South 458 527 39,000  Level Seattle Center
Thu 10:00:26 PM 42.8608 -121.8136 178° South 464 534 39,000  Level Seattle Center
Thu 10:01:27 PM 42.7081 -121.8044 177° South 459 528 39,000  Level Seattle Center
Thu 10:02:27 PM 42.5803 -121.7956 177° South 458 527 39,000  Level Seattle Center
Thu 10:03:28 PM 42.4525 -121.7872 177° South 458 527 39,000  Level Seattle Center
Thu 10:04:29 PM 42.3250 -121.7797 178° South 456 525 39,000  Level Seattle Center
Thu 10:05:30 PM 42.1964 -121.7711 177° South 456 525 39,000  Level Seattle Center
Thu 10:06:31 PM 42.0647 -121.7636 178° South 461 531 39,000  Level Seattle Center
Thu 10:07:32 PM 41.9350 -121.7575 178° South 456 525 39,000  Level Seattle Center
Thu 10:08:33 PM 41.8072 -121.7503 178° South 456 525 39,000  Level Seattle Center
Thu 10:09:34 PM 41.6794 -121.7422 177° South 457 526 39,000  Level Seattle Center
Thu 10:10:35 PM 41.5514 -121.7361 178° South 460 529 39,000  Level Seattle Center
Thu 10:11:36 PM 41.4219 -121.7272 177° South 462 532 39,000  Level Seattle Center
Thu 10:12:37 PM 41.2928 -121.7208 178° South 464 534 39,000  Level Seattle Center
Thu 10:13:37 PM 41.1650 -121.7139 178° South 461 531 39,000  Level Seattle Center
Thu 10:14:38 PM 41.0358 -121.7067 178° South 462 532 39,000  Level Seattle Center
Thu 10:15:40 PM 40.8992 -121.6967 177° South 462 532 39,000  Level Oakland Center
Thu 10:16:41 PM 40.7694 -121.6900 178° South 464 534 39,000 -195 Level Oakland Center
Thu 10:17:43 PM 40.6408 -121.6833 178° South 464 534 38,600 -1,610 Descending Oakland Center
Thu 10:18:44 PM 40.5114 -121.6750 177° South 465 535 35,700 -2,951 Descending Oakland Center
Thu 10:19:45 PM 40.3803 -121.6681 178° South 468 539 32,600 -2,803 Descending Oakland Center
Thu 10:20:46 PM 40.2478 -121.6614 178° South 472 543 30,000 -2,459 Descending Oakland Center
Thu 10:21:47 PM 40.1186 -121.6550 178° South 465 535 27,600 -2,311 Descending Oakland Center
Thu 10:22:48 PM 39.9947 -121.6481 178° South 450 518 25,300 -2,195 Descending Oakland Center
Thu 10:23:50 PM 39.8753 -121.6411 177° South 434 499 23,100 -2,146 Descending Oakland Center
Thu 10:24:51 PM 39.7606 -121.6353 178° South 416 479 20,900 -2,262 Descending Oakland Center
Thu 10:25:52 PM 39.6281 -121.6289 178° South 396 456 18,500 -2,066 Descending Oakland Center
Thu 10:26:53 PM 39.5236 -121.6236 178° South 379 436 16,700 -1,820 Descending Oakland Center
Thu 10:27:54 PM 39.4275 -121.6414 188° South 358 412 14,800 -1,770 Descending Oakland Center
Thu 10:28:55 PM 39.3325 -121.6614 189° South 349 402 13,100 -1,770 Descending Oakland Center
Thu 10:29:56 PM 39.2422 -121.6811 190° South 333 383 11,200 -1,525 Descending Oakland Center
Thu 10:30:57 PM 39.1531 -121.7006 190° South 325 374 10,000 -738 Descending Oakland Center
Thu 10:31:58 PM 39.0686 -121.7172 189° South 309 356 9,700 -984 Descending Oakland Center
Thu 10:32:59 PM 38.9917 -121.7158 179° South 283 326 8,000 -1,623 Descending Oakland Center
Thu 10:34:00 PM 38.9086 -121.7153 180° South 295 339 6,400 -1,426 Descending Oakland Center
Thu 10:35:01 PM 38.8297 -121.7144 180° South 287 330 5,100 -1,180 Descending Oakland Center
Thu 10:36:02 PM 38.7383 -121.7125 179° South 274 315 4,000 -738 Descending Oakland Center
Thu 10:37:03 PM 38.6725 -121.7111 179° South 239 275 3,600 -537 Descending Oakland Center
Thu 10:38:05 PM 38.6217 -121.6928 164° South 216 249 2,900 -878 Descending Oakland Center
Thu 10:39:06 PM 38.6158 -121.6236 96° East 200 230 1,800 -1,033 Descending Oakland Center
Thu 10:40:07 PM 38.6444 -121.6003 32° Northeast 168 193 800 -787 Descending Oakland Center
Thu 10:41:08 PM 38.6881 -121.6022 358° North 156 180 200 -590 Descending Oakland Center

Login

Don't have an account? Register now (free) for customized features, flight alerts, and more!